Time;durP1;ratioP1;P1;durP2;ratioP2;P2;SDS_P1;SDS_P2;PMS_P1;PMS_P2;Temp;Humidity;BMP_temperature;BMP_pressure;BME280_temperature;BME280_humidity;BME280_pressure;Samples;Min_cycle;Max_cycle;Signal;HPM_P1;HPM_P2
2021/05/30 00:02:12;;;;;;;5.38;4.97;;;;;;;19.97;51.20;102627.88;5024466;28;20041;-47
2021/05/30 00:04:37;;;;;;;5.60;5.15;;;;;;;19.96;51.09;102626.28;5008144;28;20450;-48
2021/05/30 00:07:03;;;;;;;5.93;5.32;;;;;;;19.95;50.65;102630.06;5008363;28;20052;-48
2021/05/30 00:09:29;;;;;;;6.00;5.47;;;;;;;19.95;50.63;102630.06;5025172;28;20909;-47
2021/05/30 00:11:54;;;;;;;6.60;5.60;;;;;;;19.92;50.77;102627.97;5009113;28;20043;-47
2021/05/30 00:14:19;;;;;;;6.45;5.90;;;;;;;19.90;50.54;102627.47;5006981;28;20033;-52
2021/05/30 00:16:45;;;;;;;6.35;5.75;;;;;;;19.90;50.65;102635.56;5008718;28;20410;-47
2021/05/30 00:19:10;;;;;;;6.53;5.90;;;;;;;19.90;50.65;102637.47;5025947;28;20033;-48
2021/05/30 00:21:37;;;;;;;12.43;6.30;;;;;;;19.92;50.72;102635.25;5007772;28;20041;-48
2021/05/30 00:24:03;;;;;;;6.63;5.90;;;;;;;19.91;50.66;102630.97;5025134;28;20159;-47
2021/05/30 00:26:28;;;;;;;6.68;5.97;;;;;;;19.89;50.65;102631.25;5026287;28;20124;-48
2021/05/30 00:28:54;;;;;;;5.85;5.35;;;;;;;19.88;50.43;102629.69;5007494;28;20087;-46
2021/05/30 00:31:19;;;;;;;6.18;5.68;;;;;;;19.86;50.40;102634.56;5026169;28;20029;-49
2021/05/30 00:33:46;;;;;;;6.55;5.95;;;;;;;19.84;50.43;102633.25;5025712;28;20041;-47
2021/05/30 00:36:12;;;;;;;6.55;6.10;;;;;;;19.85;50.35;102634.88;5007206;28;20052;-48
2021/05/30 00:38:37;;;;;;;6.10;5.70;;;;;;;19.83;50.28;102634.38;5023150;28;20037;-48
2021/05/30 00:41:03;;;;;;;6.43;5.90;;;;;;;19.82;50.06;102630.88;5013898;28;20030;-49
2021/05/30 00:43:28;;;;;;;5.70;5.30;;;;;;;19.80;49.95;102630.38;4986079;28;20041;-49
2021/05/30 00:45:53;;;;;;;6.72;6.18;;;;;;;19.80;50.17;102632.28;4986575;28;20064;-47
2021/05/30 00:48:19;;;;;;;6.40;5.88;;;;;;;19.78;49.92;102631.78;5003449;28;20037;-48
2021/05/30 00:50:44;;;;;;;6.85;6.25;;;;;;;19.75;49.98;102632.38;4992360;28;20092;-48
2021/05/30 00:53:10;;;;;;;9.00;6.43;;;;;;;19.75;49.96;102627.00;5002786;28;20497;-49
2021/05/30 00:55:35;;;;;;;6.55;5.95;;;;;;;19.72;49.62;102633.78;5004055;28;20060;-48
2021/05/30 00:58:01;;;;;;;6.43;5.80;;;;;;;19.72;49.45;102633.78;5014114;28;20034;-49
2021/05/30 01:00:26;;;;;;;6.32;5.82;;;;;;;19.68;49.62;102627.38;5006918;28;20049;-51
2021/05/30 01:02:51;;;;;;;6.82;6.13;;;;;;;19.69;49.78;102637.06;5025165;28;20431;-47
2021/05/30 01:05:17;;;;;;;6.43;5.80;;;;;;;19.70;49.86;102630.56;5025439;28;20038;-47
2021/05/30 01:07:45;;;;;;;6.45;5.85;;;;;;;19.68;49.62;102632.75;5007364;28;20561;-47
2021/05/30 01:10:35;;;;;;;6.93;6.38;;;;;;;19.66;49.59;102631.47;5023897;28;20037;-46
2021/05/30 01:13:01;;;;;;;6.72;6.07;;;;;;;19.64;49.52;102626.38;5008415;28;20041;-47
2021/05/30 01:15:27;;;;;;;6.18;5.60;;;;;;;19.63;49.59;102629.38;5006604;28;20037;-49
2021/05/30 01:17:53;;;;;;;10.05;5.72;;;;;;;19.61;49.56;102621.59;5025346;28;20063;-47
2021/05/30 01:20:18;;;;;;;6.05;5.55;;;;;;;19.61;49.35;102631.56;5024409;28;20168;-47
2021/05/30 01:22:45;;;;;;;6.57;5.97;;;;;;;19.58;49.24;102624.06;5024280;28;20042;-47
2021/05/30 01:25:11;;;;;;;6.50;5.75;;;;;;;19.59;48.99;102628.38;5024660;28;20045;-46
2021/05/30 01:27:37;;;;;;;6.45;5.85;;;;;;;19.56;49.44;102624.38;5024092;28;20038;-47
2021/05/30 01:30:04;;;;;;;7.47;5.93;;;;;;;19.57;49.24;102625.16;5024153;28;20029;-48
2021/05/30 01:32:29;;;;;;;6.80;6.10;;;;;;;19.55;49.35;102625.47;4991061;28;20038;-47
2021/05/30 01:34:54;;;;;;;6.30;5.68;;;;;;;19.55;49.30;102624.66;5023905;28;20048;-47
2021/05/30 01:37:20;;;;;;;6.40;5.80;;;;;;;19.52;49.32;102621.47;5007293;28;20570;-47
2021/05/30 01:39:45;;;;;;;6.30;5.78;;;;;;;19.52;49.49;102621.47;5023898;28;20033;-48
2021/05/30 01:42:11;;;;;;;7.15;6.45;;;;;;;19.48;49.38;102619.69;5005360;28;20450;-46
2021/05/30 01:44:36;;;;;;;6.03;5.43;;;;;;;19.48;48.98;102620.44;5024441;28;20048;-46
2021/05/30 01:47:01;;;;;;;5.93;5.43;;;;;;;19.47;48.89;102613.47;5024150;28;20446;-47
2021/05/30 01:49:27;;;;;;;6.10;5.68;;;;;;;19.46;48.84;102606.47;5006330;28;20068;-49
2021/05/30 01:51:52;;;;;;;5.95;5.45;;;;;;;19.42;49.13;102612.78;5023668;28;20059;-48
2021/05/30 01:54:19;;;;;;;6.38;5.78;;;;;;;19.41;48.83;102616.56;5022526;28;20465;-47
2021/05/30 01:56:57;;;;;;;7.03;5.75;;;;;;;19.40;48.94;102613.06;5024015;28;20057;-48
2021/05/30 01:59:27;;;;;;;6.20;5.60;;;;;;;19.39;48.71;102611.47;5005796;28;20554;-47
2021/05/30 02:01:55;;;;;;;6.63;5.63;;;;;;;19.39;48.61;102610.66;5004573;28;20048;-48
2021/05/30 02:04:23;;;;;;;6.22;5.70;;;;;;;19.36;48.78;102606.63;5003595;28;20037;-47
2021/05/30 02:06:48;;;;;;;6.13;5.60;;;;;;;19.37;48.73;102602.06;5002306;28;20041;-49
2021/05/30 02:09:14;;;;;;;6.28;5.78;;;;;;;19.35;48.53;102609.63;5003330;28;20034;-48
2021/05/30 02:11:39;;;;;;;5.95;5.35;;;;;;;19.33;48.55;102601.84;4987885;28;20037;-46
2021/05/30 02:14:04;;;;;;;6.35;5.75;;;;;;;19.31;48.60;102612.13;5002238;28;20048;-47
2021/05/30 02:16:30;;;;;;;6.50;5.25;;;;;;;19.30;48.54;102605.13;5002163;28;20041;-47
2021/05/30 02:18:55;;;;;;;6.60;5.95;;;;;;;19.29;48.54;102608.13;5016129;28;20060;-47
2021/05/30 02:21:21;;;;;;;6.35;5.85;;;;;;;19.28;48.45;102603.81;5023082;28;20037;-48
2021/05/30 02:23:46;;;;;;;6.10;5.50;;;;;;;19.26;48.55;102603.34;5022784;28;20522;-47
2021/05/30 02:26:12;;;;;;;6.93;5.82;;;;;;;19.27;48.46;102603.03;5023411;28;20829;-47
2021/05/30 02:28:37;;;;;;;6.40;5.80;;;;;;;19.25;48.16;102601.72;5005876;28;20039;-47
2021/05/30 02:31:02;;;;;;;8.63;6.00;;;;;;;19.25;48.20;102599.03;5021383;28;20037;-48
2021/05/30 02:33:28;;;;;;;7.45;5.88;;;;;;;19.24;48.36;102602.81;5023876;28;20103;-49
2021/05/30 02:35:53;;;;;;;6.60;6.05;;;;;;;19.23;48.49;102602.03;5024199;28;20092;-49
2021/05/30 02:38:18;;;;;;;6.82;6.22;;;;;;;19.20;48.40;102602.63;5021377;28;20338;-45
2021/05/30 02:40:44;;;;;;;7.85;6.03;;;;;;;19.20;48.32;102599.13;5023458;28;20088;-47
2021/05/30 02:43:09;;;;;;;8.18;5.90;;;;;;;19.17;48.14;102603.22;5024019;28;20618;-47
2021/05/30 02:45:35;;;;;;;6.57;6.07;;;;;;;19.17;48.06;102602.41;5022850;28;20056;-48
2021/05/30 02:48:00;;;;;;;6.32;5.72;;;;;;;19.16;48.07;102606.19;5023797;28;20538;-48
2021/05/30 02:50:26;;;;;;;9.90;5.70;;;;;;;19.15;48.33;102602.72;5029428;28;20787;-47
2021/05/30 02:52:51;;;;;;;9.85;6.40;;;;;;;19.15;48.35;102600.03;5043156;28;20033;-48
2021/05/30 02:55:16;;;;;;;7.60;5.50;;;;;;;19.14;48.38;102601.09;5025280;28;20037;-47
2021/05/30 02:57:42;;;;;;;7.38;6.05;;;;;;;19.12;48.14;102608.69;5043940;28;20511;-44
2021/05/30 03:00:09;;;;;;;9.80;6.63;;;;;;;19.12;48.07;102606.00;5042165;28;20041;-44
2021/05/30 03:02:34;;;;;;;8.65;5.97;;;;;;;19.11;47.96;102606.28;5043308;28;20041;-45
2021/05/30 03:04:59;;;;;;;6.65;6.05;;;;;;;19.10;47.83;102610.09;5042292;28;20049;-45
2021/05/30 03:07:25;;;;;;;7.13;6.53;;;;;;;19.08;47.91;102614.94;5013554;28;20096;-44
2021/05/30 03:09:50;;;;;;;7.68;6.30;;;;;;;19.07;48.11;102614.13;5005422;28;20045;-45
2021/05/30 03:12:16;;;;;;;6.72;6.13;;;;;;;19.06;47.51;102617.94;5022733;28;20033;-44
2021/05/30 03:14:41;;;;;;;7.18;6.47;;;;;;;19.04;47.98;102614.75;5022789;28;20040;-45
2021/05/30 03:17:07;;;;;;;6.97;6.28;;;;;;;19.02;48.02;102613.41;5023696;28;20041;-44
2021/05/30 03:19:32;;;;;;;7.35;6.43;;;;;;;19.01;48.14;102609.16;5022647;28;20124;-48
2021/05/30 03:21:58;;;;;;;7.53;6.82;;;;;;;19.01;48.08;102611.84;5029650;28;20419;-46
2021/05/30 03:24:23;;;;;;;6.80;6.20;;;;;;;19.00;48.04;102610.22;5028219;28;20113;-47
2021/05/30 03:26:48;;;;;;;7.70;6.57;;;;;;;19.00;48.02;102616.44;5028696;28;20511;-51
2021/05/30 03:29:14;;;;;;;7.18;6.50;;;;;;;18.98;47.98;102607.84;5046681;28;20044;-50
2021/05/30 03:31:39;;;;;;;7.22;6.07;;;;;;;18.98;48.00;102609.72;5047329;28;20032;-50
2021/05/30 03:34:05;;;;;;;9.20;6.15;;;;;;;18.96;47.83;102610.03;5031676;28;20041;-50
2021/05/30 03:36:32;;;;;;;8.75;6.20;;;;;;;18.94;47.84;102610.31;5027640;28;20052;-47
2021/05/30 03:39:05;;;;;;;6.97;6.28;;;;;;;18.92;47.76;102615.22;5008972;28;20039;-49
2021/05/30 03:41:39;;;;;;;7.05;6.55;;;;;;;18.91;47.84;102615.50;5026868;28;20041;-50
2021/05/30 03:44:05;;;;;;;7.47;6.32;;;;;;;18.89;47.68;102607.72;5026102;28;20045;-48
2021/05/30 03:46:31;;;;;;;7.43;6.45;;;;;;;18.88;47.56;102613.38;5030051;28;20048;-50
2021/05/30 03:48:56;;;;;;;6.82;6.13;;;;;;;18.88;47.58;102616.06;5028141;28;20036;-47
2021/05/30 03:51:21;;;;;;;6.55;6.05;;;;;;;18.87;47.88;102620.69;5046413;28;20037;-46
2021/05/30 03:53:47;;;;;;;7.15;6.53;;;;;;;18.86;47.72;102623.66;5045395;28;20475;-49
2021/05/30 03:56:12;;;;;;;7.40;6.70;;;;;;;18.85;47.64;102611.28;5044466;28;20039;-50
2021/05/30 03:58:38;;;;;;;7.25;6.40;;;;;;;18.85;47.98;102617.47;5015596;28;20439;-50
2021/05/30 04:01:03;;;;;;;7.57;6.10;;;;;;;18.85;47.60;102616.69;5012492;28;20037;-49
2021/05/30 04:03:29;;;;;;;6.53;6.00;;;;;;;18.83;48.11;102613.47;5013968;28;20068;-51
2021/05/30 04:05:54;;;;;;;7.47;6.47;;;;;;;18.82;47.74;102611.88;5006730;28;20064;-50
2021/05/30 04:08:19;;;;;;;7.35;6.75;;;;;;;18.80;47.71;102614.84;5025200;28;20041;-45
2021/05/30 04:10:45;;;;;;;7.13;5.93;;;;;;;18.81;47.87;102602.19;5002652;28;20087;-47
2021/05/30 04:13:11;;;;;;;9.65;6.53;;;;;;;18.78;47.75;102606.28;5023217;28;20037;-46
2021/05/30 04:15:36;;;;;;;8.15;7.38;;;;;;;18.77;47.76;102604.66;5026225;28;20407;-45
2021/05/30 04:18:02;;;;;;;7.20;6.55;;;;;;;18.76;47.66;102616.53;5006775;28;20087;-47
2021/05/30 04:20:27;;;;;;;7.05;6.38;;;;;;;18.75;47.98;102620.31;5025971;28;20046;-45
2021/05/30 04:22:52;;;;;;;7.50;6.82;;;;;;;18.72;47.82;102615.50;5025514;28;20037;-45
2021/05/30 04:25:23;;;;;;;9.02;6.75;;;;;;;18.75;48.02;102622.22;5024836;28;20037;-44
2021/05/30 04:27:48;;;;;;;8.75;6.60;;;;;;;18.74;47.75;102612.53;5025494;28;20503;-45
2021/05/30 04:30:14;;;;;;;6.80;6.20;;;;;;;18.72;48.10;102617.41;5024983;28;20128;-45
2021/05/30 04:32:39;;;;;;;7.63;6.93;;;;;;;18.71;48.22;102618.50;5025569;28;20563;-45
2021/05/30 04:35:05;;;;;;;6.70;6.18;;;;;;;18.70;48.00;102616.91;5024362;28;20037;-48
2021/05/30 04:37:31;;;;;;;7.70;6.18;;;;;;;18.70;48.01;102615.00;5025662;28;20863;-48
2021/05/30 04:39:56;;;;;;;7.90;6.63;;;;;;;18.69;48.04;102616.09;5025198;28;20049;-50
2021/05/30 04:42:21;;;;;;;7.03;6.50;;;;;;;18.67;47.91;102614.78;5024661;28;20045;-46
2021/05/30 04:44:47;;;;;;;7.10;6.50;;;;;;;18.67;48.05;102617.47;5025276;28;20044;-45
2021/05/30 04:47:13;;;;;;;8.20;7.40;;;;;;;18.65;48.16;102620.47;5007810;28;20029;-45
2021/05/30 04:49:41;;;;;;;7.57;6.85;;;;;;;18.65;48.08;102615.09;4996659;28;20146;-48
2021/05/30 04:52:07;;;;;;;7.55;6.90;;;;;;;18.64;48.09;102620.75;5021438;28;20474;-47
2021/05/30 04:54:32;;;;;;;7.80;7.13;;;;;;;18.62;48.11;102617.56;5007161;28;20599;-49
2021/05/30 04:56:58;;;;;;;7.93;7.13;;;;;;;18.62;47.97;102620.25;5017092;28;20080;-47
2021/05/30 04:59:23;;;;;;;9.48;7.15;;;;;;;18.61;48.25;102626.72;4991473;28;20046;-47
2021/05/30 05:01:50;;;;;;;8.38;7.57;;;;;;;18.59;48.13;102627.03;5014965;28;20050;-46
2021/05/30 05:04:15;;;;;;;9.05;7.55;;;;;;;18.58;48.23;102628.09;5022878;28;20046;-48
2021/05/30 05:06:40;;;;;;;12.27;7.55;;;;;;;18.58;48.36;102620.03;5019760;28;20026;-49
2021/05/30 05:09:06;;;;;;;10.10;7.63;;;;;;;18.56;48.30;102624.09;4990701;28;20451;-46
2021/05/30 05:11:31;;;;;;;8.38;7.57;;;;;;;18.55;48.42;102627.91;4990964;28;20037;-45
2021/05/30 05:13:58;;;;;;;8.68;7.43;;;;;;;18.57;48.41;102631.09;5005058;28;20160;-45
2021/05/30 05:16:23;;;;;;;10.52;8.43;;;;;;;18.56;48.53;102634.88;5002528;28;20528;-49
2021/05/30 05:18:48;;;;;;;10.00;7.85;;;;;;;18.55;48.61;102631.38;5014138;28;20120;-47
2021/05/30 05:21:14;;;;;;;8.13;7.43;;;;;;;18.53;48.70;102630.88;5013124;28;20103;-44
2021/05/30 05:23:39;;;;;;;8.57;7.68;;;;;;;18.54;49.05;102627.09;5023300;28;20706;-44
2021/05/30 05:26:05;;;;;;;8.80;7.97;;;;;;;18.55;48.91;102633.28;5023747;28;20049;-46
2021/05/30 05:28:31;;;;;;;8.27;7.55;;;;;;;18.54;48.92;102637.06;5006573;28;20094;-45
2021/05/30 05:30:56;;;;;;;10.10;8.13;;;;;;;18.54;49.00;102635.19;5024811;28;20095;-49
2021/05/30 05:33:22;;;;;;;9.40;7.93;;;;;;;18.52;48.88;102633.88;5024178;28;20037;-43
2021/05/30 05:35:47;;;;;;;8.43;7.53;;;;;;;18.52;49.26;102633.88;5024208;28;20033;-45
2021/05/30 05:38:13;;;;;;;9.00;8.15;;;;;;;18.52;49.21;102634.69;4999054;28;20041;-45
2021/05/30 05:40:38;;;;;;;8.73;7.93;;;;;;;18.51;49.13;102635.75;5001876;28;20574;-47
2021/05/30 05:43:04;;;;;;;11.93;8.38;;;;;;;18.51;49.34;102626.88;4972318;28;20523;-46
2021/05/30 05:45:30;;;;;;;10.35;8.35;;;;;;;18.50;49.18;102627.97;5042404;28;20052;-48
2021/05/30 05:47:55;;;;;;;12.68;8.73;;;;;;;18.50;49.56;102630.66;5044146;28;20033;-47
2021/05/30 05:50:21;;;;;;;9.00;8.20;;;;;;;18.50;49.35;102630.66;5051897;28;20123;-44
2021/05/30 05:52:47;;;;;;;14.38;8.50;;;;;;;18.49;49.61;102637.16;5063448;28;20037;-45
2021/05/30 05:55:13;;;;;;;12.48;8.45;;;;;;;18.50;49.65;102636.03;5063069;28;20078;-50
2021/05/30 05:57:39;;;;;;;14.13;8.27;;;;;;;18.50;49.76;102636.03;5063144;28;20390;-46
2021/05/30 06:00:09;;;;;;;9.70;8.07;;;;;;;18.49;49.62;102629.88;5008511;28;20168;-46
2021/05/30 06:02:34;;;;;;;12.48;8.20;;;;;;;18.49;49.84;102632.56;5023348;28;20064;-46
2021/05/30 06:04:59;;;;;;;8.32;7.60;;;;;;;18.50;50.09;102630.66;4993485;28;20038;-46
2021/05/30 06:07:25;;;;;;;9.20;8.40;;;;;;;18.50;50.29;102636.84;5005400;28;20466;-46
2021/05/30 06:09:53;;;;;;;8.98;8.35;;;;;;;18.51;50.07;102634.94;5011834;28;20037;-47
2021/05/30 06:12:18;;;;;;;10.63;8.68;;;;;;;18.49;50.44;102624.50;5011451;28;20330;-45
2021/05/30 06:14:45;;;;;;;11.20;9.55;;;;;;;18.50;50.25;102628.75;4994216;28;20480;-46
2021/05/30 06:17:10;;;;;;;9.27;8.25;;;;;;;18.48;50.52;102628.25;5013300;28;20041;-46
2021/05/30 06:19:36;;;;;;;10.77;9.43;;;;;;;18.51;50.97;102616.09;5012203;28;20034;-46
2021/05/30 06:22:02;;;;;;;9.68;8.48;;;;;;;18.52;50.83;102623.91;5013558;28;20041;-46
2021/05/30 06:24:27;;;;;;;9.45;8.57;;;;;;;18.48;50.96;102614.81;5020302;28;20113;-47
2021/05/30 06:26:56;;;;;;;12.32;9.70;;;;;;;18.46;50.85;102618.84;5019673;28;20037;-48
2021/05/30 06:29:21;;;;;;;10.45;9.38;;;;;;;18.47;50.96;102631.22;5003113;28;20045;-49
2021/05/30 06:31:47;;;;;;;10.13;9.02;;;;;;;18.45;50.78;102626.13;5020511;28;20082;-52
2021/05/30 06:34:15;;;;;;;11.50;10.30;;;;;;;18.44;50.80;102626.41;5021275;28;20029;-52
2021/05/30 06:36:44;;;;;;;13.38;10.38;;;;;;;18.45;51.01;102628.00;5004294;28;20132;-50
2021/05/30 06:39:09;;;;;;;11.85;10.23;;;;;;;18.44;50.87;102635.31;4986789;28;20045;-49
2021/05/30 06:41:36;;;;;;;11.93;10.27;;;;;;;18.45;51.25;102633.38;5021115;28;20041;-48
2021/05/30 06:44:01;;;;;;;12.55;9.85;;;;;;;18.44;51.72;102638.00;5003238;28;20036;-46
2021/05/30 06:46:27;;;;;;;11.25;10.05;;;;;;;18.47;51.88;102642.00;5000919;28;20442;-48
2021/05/30 06:48:52;;;;;;;14.38;9.93;;;;;;;18.47;52.04;102642.78;5016625;28;20049;-50
2021/05/30 06:51:18;;;;;;;13.43;10.60;;;;;;;18.46;51.69;102635.00;5016172;28;20095;-47
2021/05/30 06:53:48;;;;;;;13.63;11.80;;;;;;;18.46;51.73;102643.06;5014988;28;20037;-47
2021/05/30 06:56:13;;;;;;;11.70;10.43;;;;;;;18.47;51.88;102633.91;5016908;28;20037;-46
2021/05/30 06:58:39;;;;;;;12.55;11.25;;;;;;;18.45;51.73;102644.16;5030742;28;20424;-49
2021/05/30 07:01:05;;;;;;;12.68;11.40;;;;;;;18.44;51.67;102648.75;5038061;28;20479;-46
2021/05/30 07:03:30;;;;;;;12.93;11.50;;;;;;;18.45;51.80;102644.16;5024662;28;20060;-50
2021/05/30 07:05:56;;;;;;;12.73;11.43;;;;;;;18.47;51.88;102639.31;5022540;28;20102;-47
2021/05/30 07:08:21;;;;;;;13.38;12.02;;;;;;;18.46;51.65;102643.88;5038953;28;20123;-49
2021/05/30 07:10:47;;;;;;;13.82;12.18;;;;;;;18.45;51.99;102638.78;5041290;28;20041;-50
2021/05/30 07:13:12;;;;;;;12.45;11.25;;;;;;;18.44;52.01;102647.97;5040779;28;20048;-51
2021/05/30 07:15:37;;;;;;;13.27;11.93;;;;;;;18.44;51.68;102646.06;5041403;28;20040;-48
2021/05/30 07:18:03;;;;;;;15.20;12.35;;;;;;;18.43;51.94;102644.47;5041769;28;20061;-49
2021/05/30 07:20:28;;;;;;;15.77;12.98;;;;;;;18.44;51.98;102642.56;5042402;28;20060;-50
2021/05/30 07:22:54;;;;;;;13.15;11.73;;;;;;;18.45;52.01;102638.78;5041842;28;20051;-51
2021/05/30 07:25:19;;;;;;;13.02;11.82;;;;;;;18.45;52.05;102647.66;5039515;28;20571;-47
2021/05/30 07:27:44;;;;;;;12.98;11.60;;;;;;;18.47;52.09;102642.78;5040110;28;20037;-48
2021/05/30 07:30:10;;;;;;;13.25;11.98;;;;;;;18.50;52.07;102646.81;5007739;28;20079;-51
2021/05/30 07:32:35;;;;;;;13.10;11.77;;;;;;;18.50;51.94;102636.84;5040277;28;20037;-45
2021/05/30 07:35:01;;;;;;;12.73;11.52;;;;;;;18.54;52.83;102637.88;5039996;28;20055;-50
2021/05/30 07:37:26;;;;;;;14.05;12.45;;;;;;;18.60;53.47;102639.41;5008918;28;20033;-48
2021/05/30 07:39:51;;;;;;;16.25;12.75;;;;;;;18.65;53.96;102644.72;5042118;28;20045;-52
2021/05/30 07:42:17;;;;;;;15.25;11.35;;;;;;;18.67;53.97;102637.13;5042080;28;20502;-50
2021/05/30 07:44:42;;;;;;;14.05;10.90;;;;;;;18.69;54.06;102642.22;5024646;28;20051;-48
2021/05/30 07:47:08;;;;;;;18.85;11.80;;;;;;;18.67;54.17;102642.53;5025151;28;20037;-48
2021/05/30 07:49:33;;;;;;;12.20;10.82;;;;;;;18.67;54.42;102641.72;5019483;28;20041;-51
2021/05/30 07:51:59;;;;;;;12.85;10.63;;;;;;;18.67;54.42;102650.59;5020808;28;20056;-50
2021/05/30 07:54:25;;;;;;;12.32;11.20;;;;;;;18.66;54.13;102649.00;5032321;28;20032;-50
2021/05/30 07:56:50;;;;;;;13.00;11.30;;;;;;;18.66;53.98;102645.53;5027652;28;20044;-52
2021/05/30 07:59:16;;;;;;;12.70;11.50;;;;;;;18.66;53.40;102638.22;5027948;28;20292;-49
2021/05/30 08:01:42;;;;;;;12.18;10.63;;;;;;;18.67;53.25;102637.13;5027643;28;20052;-50
2021/05/30 08:04:07;;;;;;;11.48;10.30;;;;;;;18.68;53.18;102637.94;5028554;28;20050;-48
2021/05/30 08:06:32;;;;;;;11.02;9.95;;;;;;;18.70;53.04;102638.44;5015726;28;20049;-48
2021/05/30 08:08:58;;;;;;;11.02;9.77;;;;;;;18.71;53.12;102640.06;4984929;28;20052;-52
2021/05/30 08:11:24;;;;;;;11.48;10.38;;;;;;;18.71;53.15;102640.06;4999083;28;20130;-50
2021/05/30 08:13:50;;;;;;;10.98;9.23;;;;;;;18.74;53.12;102642.16;5011200;28;20040;-46
2021/05/30 08:16:15;;;;;;;11.55;10.38;;;;;;;18.73;53.26;102645.94;5006046;28;20038;-49
2021/05/30 08:18:41;;;;;;;11.02;9.77;;;;;;;18.74;54.77;102650.25;5015905;28;20482;-45
2021/05/30 08:21:06;;;;;;;12.25;10.88;;;;;;;18.74;54.31;102642.16;5021362;28;20095;-47
2021/05/30 08:23:32;;;;;;;10.88;9.88;;;;;;;18.75;53.55;102641.06;5011421;28;20049;-46
2021/05/30 08:25:57;;;;;;;10.05;9.10;;;;;;;18.75;53.29;102639.16;5018669;28;20399;-46
2021/05/30 08:28:22;;;;;;;10.15;9.15;;;;;;;18.77;52.99;102638.91;4988251;28;20748;-46
2021/05/30 08:30:48;;;;;;;10.02;9.02;;;;;;;18.76;52.64;102639.97;5022178;28;20041;-48
2021/05/30 08:33:13;;;;;;;12.85;9.43;;;;;;;18.78;52.70;102632.41;5004111;28;20090;-47
2021/05/30 08:35:38;;;;;;;10.48;9.15;;;;;;;18.82;52.83;102636.91;5020075;28;20043;-49
2021/05/30 08:38:04;;;;;;;10.80;9.70;;;;;;;18.86;52.51;102631.72;5026610;28;20103;-48
2021/05/30 08:40:29;;;;;;;10.57;8.90;;;;;;;18.89;52.30;102633.84;5015143;28;21328;-47
2021/05/30 08:42:54;;;;;;;10.55;9.55;;;;;;;18.91;51.90;102628.97;4992762;28;20049;-47
2021/05/30 08:45:20;;;;;;;14.55;10.10;;;;;;;18.91;52.08;102623.56;4976048;28;20408;-51
2021/05/30 08:47:47;;;;;;;10.63;9.60;;;;;;;18.93;52.24;102624.09;4997767;28;20069;-47
2021/05/30 08:50:12;;;;;;;11.43;9.38;;;;;;;18.93;52.20;102630.25;4995562;28;20564;-47
2021/05/30 08:52:38;;;;;;;10.38;9.48;;;;;;;18.92;52.52;102628.69;4991530;28;20099;-48
2021/05/30 08:55:04;;;;;;;22.60;10.93;;;;;;;19.00;53.17;102631.78;4999622;28;20038;-51
2021/05/30 08:57:29;;;;;;;18.25;11.23;;;;;;;18.91;52.76;102637.03;4985404;28;20049;-50
2021/05/30 08:59:56;;;;;;;16.98;10.90;;;;;;;18.88;52.84;102622.25;5017752;28;20037;-52
2021/05/30 09:02:21;;;;;;;16.08;10.18;;;;;;;18.89;52.53;102623.88;4980180;28;20036;-52
2021/05/30 09:04:51;;;;;;;16.02;10.38;;;;;;;18.84;52.69;102634.72;4999546;28;20048;-48
2021/05/30 09:07:16;;;;;;;13.93;10.95;;;;;;;18.87;52.30;102627.97;5009450;28;20037;-51
2021/05/30 09:09:45;;;;;;;12.80;10.57;;;;;;;18.85;52.90;102627.47;5007160;28;20045;-48
2021/05/30 09:12:21;;;;;;;14.75;10.48;;;;;;;18.85;52.66;102622.84;5003120;28;20038;-48
2021/05/30 09:14:49;;;;;;;11.48;10.38;;;;;;;18.85;52.64;102630.16;4994467;28;20071;-51
2021/05/30 09:17:15;;;;;;;11.23;10.05;;;;;;;18.85;52.51;102624.75;5013424;28;20051;-52
2021/05/30 09:19:44;;;;;;;11.75;10.00;;;;;;;18.90;52.80;102625.50;5009081;28;20063;-51
2021/05/30 09:22:21;;;;;;;16.23;9.68;;;;;;;18.91;51.95;102628.97;4996888;28;20132;-52
2021/05/30 09:24:49;;;;;;;13.50;9.45;;;;;;;18.95;52.04;102627.28;5031336;28;20063;-51
2021/05/30 09:27:15;;;;;;;10.48;9.38;;;;;;;18.94;51.83;102625.69;5031215;28;20079;-51
2021/05/30 09:29:40;;;;;;;12.98;9.63;;;;;;;18.92;52.41;102623.28;4990669;28;20041;-50
2021/05/30 09:32:06;;;;;;;10.60;9.60;;;;;;;18.96;53.53;102618.13;5006307;28;20025;-51
2021/05/30 09:34:32;;;;;;;15.95;9.00;;;;;;;19.01;54.40;102615.34;5020834;28;20052;-52
2021/05/30 09:36:58;;;;;;;12.90;8.20;;;;;;;19.06;54.12;102617.16;5000076;28;20112;-51
2021/05/30 09:39:32;;;;;;;11.85;8.75;;;;;;;19.04;52.80;102622.84;5011938;28;20045;-50
2021/05/30 09:42:34;;;;;;;11.73;8.52;;;;;;;19.04;52.40;102609.38;5002202;28;20552;-49
2021/05/30 09:45:05;;;;;;;10.90;8.98;;;;;;;19.04;51.77;102612.06;4997005;28;20030;-52
2021/05/30 09:47:34;;;;;;;9.60;7.88;;;;;;;19.08;51.76;102617.63;5017777;28;20045;-52
2021/05/30 09:50:00;;;;;;;10.45;8.60;;;;;;;19.00;51.35;102599.44;4997892;28;20057;-49
2021/05/30 09:52:41;;;;;;;9.00;7.95;;;;;;;19.04;52.20;102598.59;4998661;28;20048;-53
2021/05/30 09:55:15;;;;;;;9.65;6.93;;;;;;;19.06;49.44;102593.69;5010792;28;20061;-53
2021/05/30 09:57:41;;;;;;;8.80;6.78;;;;;;;19.06;50.68;102606.38;5007596;28;20044;-49
2021/05/30 10:00:19;;;;;;;6.25;5.63;;;;;;;19.10;50.09;102607.38;4998173;28;20029;-52
2021/05/30 10:02:45;;;;;;;9.25;5.80;;;;;;;19.10;48.44;102602.78;4964333;28;21158;-53
2021/05/30 10:05:10;;;;;;;7.10;5.53;;;;;;;19.08;47.55;102599.59;4989223;28;20046;-52
2021/05/30 10:07:36;;;;;;;6.70;4.50;;;;;;;19.02;45.67;102589.16;4964055;28;20073;-48
2021/05/30 10:10:01;;;;;;;6.28;5.00;;;;;;;19.04;47.96;102587.81;4971870;28;20570;-50
2021/05/30 10:12:26;;;;;;;5.80;4.85;;;;;;;19.12;48.58;102587.13;4973660;28;20053;-52
2021/05/30 10:14:52;;;;;;;5.95;4.40;;;;;;;19.13;47.85;102596.78;4965011;28;20038;-52
2021/05/30 10:17:18;;;;;;;4.50;4.10;;;;;;;19.15;47.20;102591.13;4989733;28;20042;-49
2021/05/30 10:19:44;;;;;;;4.78;4.28;;;;;;;19.16;47.09;102588.13;4973961;28;20048;-52
2021/05/30 10:22:09;;;;;;;5.25;4.75;;;;;;;19.21;46.29;102587.22;4995051;28;20127;-52
2021/05/30 10:24:38;;;;;;;4.18;3.90;;;;;;;19.20;47.50;102589.16;4967465;28;20049;-51
2021/05/30 10:27:15;;;;;;;4.32;3.97;;;;;;;19.24;47.39;102583.94;4985761;28;20065;-50
2021/05/30 10:29:41;;;;;;;4.57;4.18;;;;;;;19.26;47.53;102579.84;4997724;28;20069;-54
2021/05/30 10:32:19;;;;;;;5.20;4.63;;;;;;;19.27;47.44;102584.16;5000389;28;20045;-48
2021/05/30 10:35:09;;;;;;;4.70;4.20;;;;;;;19.31;48.21;102579.78;5001313;28;20092;-49
2021/05/30 10:37:44;;;;;;;4.78;4.07;;;;;;;19.33;47.83;102580.28;5002142;28;20042;-51
2021/05/30 10:40:48;;;;;;;9.98;4.07;;;;;;;19.36;46.96;102582.38;5004834;28;20053;-52
2021/05/30 10:43:15;;;;;;;6.47;4.60;;;;;;;19.43;46.34;102590.91;4988522;28;20061;-55
2021/05/30 10:45:43;;;;;;;15.15;4.28;;;;;;;19.40;46.43;102586.09;4995498;28;20188;-54
2021/05/30 10:48:09;;;;;;;4.63;4.22;;;;;;;19.38;46.41;102590.19;5016900;28;20049;-54
2021/05/30 10:50:40;;;;;;;5.00;4.53;;;;;;;19.44;46.64;102580.91;5001030;28;20049;-48
2021/05/30 10:53:27;;;;;;;4.70;4.30;;;;;;;19.51;46.58;102581.31;5001025;28;20044;-51
2021/05/30 10:55:53;;;;;;;5.03;4.53;;;;;;;19.49;46.83;102584.31;5009659;28;20053;-49
2021/05/30 10:58:21;;;;;;;5.32;4.60;;;;;;;19.56;46.95;102573.16;5012950;28;20037;-51
2021/05/30 11:00:46;;;;;;;12.40;4.95;;;;;;;19.55;48.10;102576.94;4995326;28;20499;-52
2021/05/30 11:03:13;;;;;;;5.03;4.28;;;;;;;19.53;48.05;102569.13;4990569;28;20056;-53
2021/05/30 11:05:51;;;;;;;7.70;4.82;;;;;;;19.52;48.56;102570.25;5011843;28;20064;-53
2021/05/30 11:08:33;;;;;;;4.22;3.92;;;;;;;19.57;47.80;102563.94;5005452;28;20484;-53
2021/05/30 11:11:17;;;;;;;6.00;3.92;;;;;;;19.62;48.61;102560.34;5006629;28;20764;-53
2021/05/30 11:14:08;;;;;;;10.40;4.10;;;;;;;19.77;48.15;102565.44;5013309;28;20038;-53
2021/05/30 11:16:33;;;;;;;9.77;4.18;;;;;;;19.82;47.84;102557.22;5009877;28;20129;-53
2021/05/30 11:19:05;;;;;;;11.88;4.38;;;;;;;19.80;49.01;102551.34;4993564;28;20042;-52
2021/05/30 11:21:40;;;;;;;13.77;4.25;;;;;;;19.76;50.78;102547.63;4990062;28;20148;-51